Time;durP1;ratioP1;P1;durP2;ratioP2;P2;SDS_P1;SDS_P2;PMS_P1;PMS_P2;Temp;Humidity;BMP_temperature;BMP_pressure;BME280_temperature;BME280_humidity;BME280_pressure;Samples;Min_cycle;Max_cycle;Signal;HPM_P1;HPM_P2
2022/04/24 00:01:55;;;;;;;9.23;7.63;;;9.20;99.90;;;;;;5076359;28;20041;-86
2022/04/24 00:04:21;;;;;;;10.75;7.93;;;9.20;99.90;;;;;;5057105;28;20058;-86
2022/04/24 00:06:46;;;;;;;9.25;7.53;;;9.30;99.90;;;;;;5086722;27;20056;-85
2022/04/24 00:09:16;;;;;;;10.57;7.93;;;9.30;99.90;;;;;;5059728;28;20097;-86
2022/04/24 00:11:42;;;;;;;10.82;7.80;;;9.30;99.90;;;;;;5056507;28;20029;-86
2022/04/24 00:14:11;;;;;;;9.82;7.75;;;9.20;99.90;;;;;;5070990;28;20040;-86
2022/04/24 00:16:38;;;;;;;9.90;7.35;;;9.20;99.90;;;;;;5071414;28;20097;-85
2022/04/24 00:19:05;;;;;;;9.25;7.22;;;9.30;99.90;;;;;;5051409;28;20104;-85
2022/04/24 00:21:31;;;;;;;9.25;7.47;;;9.30;99.90;;;;;;5066707;28;20214;-85
2022/04/24 00:23:57;;;;;;;8.20;7.40;;;9.20;99.90;;;;;;5057030;28;20546;-85
2022/04/24 00:26:23;;;;;;;9.60;8.10;;;9.20;99.90;;;;;;5066411;28;20480;-86
2022/04/24 00:28:49;;;;;;;10.82;7.55;;;9.10;99.90;;;;;;5060250;28;20036;-85
2022/04/24 00:31:14;;;;;;;10.50;8.27;;;9.00;99.90;;;;;;5067503;28;20058;-86
2022/04/24 00:33:40;;;;;;;10.80;8.55;;;9.00;99.90;;;;;;5079763;28;20368;-86
2022/04/24 00:36:06;;;;;;;10.00;7.75;;;9.00;99.90;;;;;;5049946;28;20050;-86
2022/04/24 00:38:35;;;;;;;9.60;7.78;;;8.90;1.00;;;;;;5052642;28;20534;-86
2022/04/24 00:41:02;;;;;;;9.30;8.20;;;8.80;1.00;;;;;;5055699;28;20047;-85
2022/04/24 00:43:29;;;;;;;11.13;8.82;;;8.70;1.00;;;;;;5059054;28;20086;-85
2022/04/24 00:46:18;;;;;;;10.05;8.93;;;8.60;1.00;;;;;;5082124;28;20037;-85
2022/04/24 00:48:44;;;;;;;12.65;8.88;;;8.60;1.00;;;;;;5069515;28;20040;-85
2022/04/24 00:51:11;;;;;;;10.63;8.82;;;8.50;1.00;;;;;;5051046;28;20298;-85
2022/04/24 00:53:36;;;;;;;9.52;8.57;;;8.50;1.00;;;;;;5054984;28;20111;-85
2022/04/24 00:56:04;;;;;;;10.38;9.07;;;8.50;1.00;;;;;;5056077;28;20434;-85
2022/04/24 00:58:30;;;;;;;10.18;9.07;;;8.40;1.00;;;;;;5069848;28;20130;-85
2022/04/24 01:00:56;;;;;;;11.63;8.88;;;8.40;1.00;;;;;;5058613;28;20040;-85
2022/04/24 01:03:23;;;;;;;12.65;8.38;;;8.40;1.00;;;;;;5063823;28;20041;-86
2022/04/24 01:05:49;;;;;;;9.70;8.70;;;8.30;1.00;;;;;;5055035;28;20325;-86
2022/04/24 01:08:15;;;;;;;10.05;8.48;;;8.30;1.00;;;;;;5069939;28;20045;-85
2022/04/24 01:10:41;;;;;;;10.73;8.65;;;8.30;1.00;;;;;;5068032;28;20043;-85
2022/04/24 01:13:07;;;;;;;10.52;9.23;;;8.20;1.00;;;;;;5070777;28;20063;-85
2022/04/24 01:15:33;;;;;;;9.68;8.68;;;8.20;1.00;;;;;;5072498;28;20046;-85
2022/04/24 01:18:00;;;;;;;13.98;9.60;;;8.20;1.00;;;;;;5067234;28;20055;-86
2022/04/24 01:20:26;;;;;;;11.80;9.63;;;8.20;1.00;;;;;;5072871;28;20051;-85
2022/04/24 01:22:52;;;;;;;10.10;8.65;;;8.20;1.00;;;;;;5050387;28;20312;-85
2022/04/24 01:25:19;;;;;;;13.70;9.95;;;8.20;1.00;;;;;;5070317;28;20033;-85
2022/04/24 01:27:45;;;;;;;10.82;8.77;;;8.20;1.00;;;;;;5070320;28;20391;-85
2022/04/24 01:30:10;;;;;;;9.73;8.73;;;8.20;1.00;;;;;;5067742;28;20036;-86
2022/04/24 01:32:38;;;;;;;10.77;8.80;;;8.10;1.00;;;;;;5073569;28;20036;-86
2022/04/24 01:35:05;;;;;;;11.38;9.30;;;8.10;1.00;;;;;;5056140;28;20645;-85
2022/04/24 01:37:30;;;;;;;12.02;9.18;;;8.00;1.00;;;;;;5055796;28;20491;-85
2022/04/24 01:39:57;;;;;;;10.05;9.02;;;8.00;1.00;;;;;;5086915;28;20032;-85
2022/04/24 01:42:24;;;;;;;11.27;9.75;;;8.00;1.00;;;;;;5055149;28;20094;-85
2022/04/24 01:44:50;;;;;;;12.40;9.35;;;8.00;1.00;;;;;;5074097;28;20420;-85
2022/04/24 01:47:16;;;;;;;11.40;9.02;;;7.90;1.00;;;;;;5065431;28;20058;-86
2022/04/24 01:49:42;;;;;;;10.57;9.48;;;7.90;1.00;;;;;;5054127;28;20407;-85
2022/04/24 01:52:08;;;;;;;11.68;9.48;;;7.80;1.00;;;;;;5065913;28;20395;-85
2022/04/24 01:54:34;;;;;;;10.75;8.98;;;7.80;1.00;;;;;;5056333;28;20035;-85
2022/04/24 01:57:00;;;;;;;12.57;9.30;;;7.80;1.00;;;;;;5057489;28;20431;-85
2022/04/24 01:59:26;;;;;;;10.57;9.25;;;7.80;1.00;;;;;;5057055;28;20047;-85
2022/04/24 02:01:51;;;;;;;10.45;9.35;;;7.70;1.00;;;;;;5079977;28;20275;-86
2022/04/24 02:04:22;;;;;;;10.68;9.57;;;7.60;1.00;;;;;;5054597;28;20822;-85
2022/04/24 02:06:49;;;;;;;12.45;9.35;;;7.70;1.00;;;;;;5075485;28;20036;-85
2022/04/24 02:09:15;;;;;;;12.77;10.05;;;7.60;1.00;;;;;;5069606;28;20344;-85
2022/04/24 02:11:41;;;;;;;11.40;8.75;;;7.60;1.00;;;;;;5068776;28;20048;-85
2022/04/24 02:14:09;;;;;;;16.13;10.05;;;7.60;1.00;;;;;;5069836;28;20349;-84
2022/04/24 02:16:35;;;;;;;11.77;10.30;;;7.60;1.00;;;;;;5084206;28;20045;-85
2022/04/24 02:19:01;;;;;;;9.95;8.95;;;7.60;1.00;;;;;;5057523;28;20039;-85
2022/04/24 02:21:28;;;;;;;11.45;9.55;;;7.60;1.00;;;;;;5070002;28;20439;-85
2022/04/24 02:23:55;;;;;;;10.98;9.38;;;7.60;1.00;;;;;;5056747;28;20522;-85
2022/04/24 02:26:20;;;;;;;11.45;9.50;;;7.60;1.00;;;;;;5087050;28;20094;-85
2022/04/24 02:28:46;;;;;;;10.82;9.10;;;7.60;1.00;;;;;;5070392;28;20495;-86
2022/04/24 02:31:12;;;;;;;10.60;9.15;;;7.60;1.00;;;;;;5087973;28;20447;-85
2022/04/24 02:33:37;;;;;;;10.65;9.43;;;7.60;1.00;;;;;;5066959;28;20267;-84
2022/04/24 02:36:03;;;;;;;11.63;9.43;;;7.50;1.00;;;;;;5062404;28;20076;-84
2022/04/24 02:38:29;;;;;;;11.65;9.18;;;7.60;1.00;;;;;;5067305;28;20500;-86
2022/04/24 02:40:55;;;;;;;10.95;8.95;;;7.50;1.00;;;;;;5071826;28;20135;-85
2022/04/24 02:43:21;;;;;;;10.23;9.10;;;7.50;1.00;;;;;;5059511;28;20112;-85
2022/04/24 02:45:47;;;;;;;11.25;9.70;;;7.50;1.00;;;;;;5059301;28;20177;-84
2022/04/24 02:48:13;;;;;;;10.55;9.18;;;7.60;1.00;;;;;;5058380;28;20097;-85
2022/04/24 02:50:39;;;;;;;9.90;8.85;;;7.60;1.00;;;;;;5060900;28;20032;-85
2022/04/24 02:53:06;;;;;;;11.93;9.02;;;7.50;1.00;;;;;;5072468;28;20043;-85
2022/04/24 02:55:32;;;;;;;11.52;9.38;;;7.50;1.00;;;;;;5055481;28;20044;-85
2022/04/24 02:57:57;;;;;;;11.25;9.63;;;7.50;1.00;;;;;;5089724;28;20036;-85
2022/04/24 03:00:25;;;;;;;13.55;9.25;;;7.50;1.00;;;;;;5091405;28;20435;-85
2022/04/24 03:02:51;;;;;;;10.38;8.05;;;7.50;1.00;;;;;;5058168;28;20044;-84
2022/04/24 03:05:20;;;;;;;10.90;9.05;;;7.50;1.00;;;;;;5056576;28;20036;-85
2022/04/24 03:07:46;;;;;;;10.63;9.50;;;7.50;1.00;;;;;;5072267;28;20031;-86
2022/04/24 03:10:13;;;;;;;11.30;8.90;;;7.50;1.00;;;;;;5068272;28;20040;-85
2022/04/24 03:12:40;;;;;;;11.95;8.75;;;7.40;1.00;;;;;;5054677;28;20335;-85
2022/04/24 03:15:08;;;;;;;10.68;9.30;;;7.50;1.00;;;;;;5087045;28;20156;-85
2022/04/24 03:17:34;;;;;;;10.27;8.60;;;7.50;1.00;;;;;;5059817;28;20032;-85
2022/04/24 03:20:01;;;;;;;9.45;8.45;;;7.50;1.00;;;;;;5073234;28;20123;-86
2022/04/24 03:22:27;;;;;;;9.35;8.32;;;7.50;1.00;;;;;;5073485;28;20036;-85
2022/04/24 03:24:53;;;;;;;9.30;7.95;;;7.50;1.00;;;;;;5056599;28;20036;-85
2022/04/24 03:27:19;;;;;;;12.75;9.20;;;7.50;1.00;;;;;;5083309;28;20046;-85
2022/04/24 03:29:45;;;;;;;11.68;8.45;;;7.50;1.00;;;;;;5057722;28;20491;-85
2022/04/24 03:32:11;;;;;;;10.60;8.52;;;7.50;1.00;;;;;;5063122;28;20109;-85
2022/04/24 03:34:37;;;;;;;9.20;7.95;;;7.50;1.00;;;;;;5066494;28;20123;-86
2022/04/24 03:37:04;;;;;;;10.43;8.73;;;7.40;1.00;;;;;;5058064;28;20098;-84
2022/04/24 03:39:30;;;;;;;13.13;8.93;;;7.40;1.00;;;;;;5063439;28;20182;-85
2022/04/24 03:41:56;;;;;;;13.35;9.10;;;7.40;1.00;;;;;;5051934;28;20044;-84
2022/04/24 03:44:22;;;;;;;11.63;9.00;;;7.40;1.00;;;;;;5059096;28;20044;-83
2022/04/24 03:46:48;;;;;;;10.82;8.82;;;7.40;1.00;;;;;;5059093;28;20310;-84
2022/04/24 03:49:16;;;;;;;11.65;8.90;;;7.40;24.00;;;;;;5072912;28;20040;-85
2022/04/24 03:51:42;;;;;;;12.13;9.02;;;7.30;1.00;;;;;;5072424;28;20037;-84
2022/04/24 03:54:08;;;;;;;12.32;8.90;;;7.20;1.00;;;;;;5057966;28;20549;-85
2022/04/24 03:56:34;;;;;;;12.75;9.02;;;7.30;23.30;;;;;;5050185;28;20058;-85
2022/04/24 03:59:00;;;;;;;11.43;8.43;;;7.20;26.20;;;;;;5056504;28;20275;-84
2022/04/24 04:01:26;;;;;;;10.00;8.45;;;7.30;13.70;;;;;;5056982;28;20047;-84
2022/04/24 04:03:53;;;;;;;10.02;8.25;;;7.20;19.20;;;;;;5056354;28;20028;-84
2022/04/24 04:06:19;;;;;;;10.23;8.60;;;7.20;28.00;;;;;;5058185;28;20094;-85
2022/04/24 04:08:45;;;;;;;11.23;8.32;;;7.30;11.80;;;;;;5069622;28;20184;-85
2022/04/24 04:11:10;;;;;;;10.35;8.75;;;7.30;9.70;;;;;;5069721;28;20044;-85
2022/04/24 04:13:36;;;;;;;10.82;8.60;;;7.20;24.90;;;;;;5054029;28;20229;-85
2022/04/24 04:16:02;;;;;;;14.23;9.27;;;7.20;9.40;;;;;;5060108;28;20044;-85
2022/04/24 04:18:27;;;;;;;11.13;8.68;;;7.20;26.20;;;;;;5066919;28;20566;-85
2022/04/24 04:20:54;;;;;;;11.23;8.50;;;7.20;6.60;;;;;;5067853;28;20036;-85
2022/04/24 04:23:20;;;;;;;10.30;8.48;;;7.20;33.90;;;;;;5058284;28;20404;-85
2022/04/24 04:25:45;;;;;;;9.70;8.07;;;7.20;47.50;;;;;;5074156;28;20089;-85
2022/04/24 04:28:12;;;;;;;11.35;8.65;;;7.10;65.70;;;;;;5067678;28;20562;-85
2022/04/24 04:30:37;;;;;;;9.60;7.50;;;7.20;57.00;;;;;;5065762;28;20095;-85
2022/04/24 04:33:05;;;;;;;10.45;8.77;;;7.10;59.80;;;;;;5074903;28;20031;-85
2022/04/24 04:35:31;;;;;;;12.75;8.68;;;7.20;47.70;;;;;;5055956;28;20598;-85
2022/04/24 04:37:57;;;;;;;10.32;8.27;;;7.10;71.10;;;;;;5069892;28;20037;-85
2022/04/24 04:40:23;;;;;;;11.55;8.77;;;7.20;57.20;;;;;;5067455;28;20040;-84
2022/04/24 04:42:49;;;;;;;12.05;8.70;;;7.20;65.10;;;;;;5055539;28;20432;-85
2022/04/24 04:45:15;;;;;;;9.73;8.18;;;7.20;44.90;;;;;;5058829;28;20089;-85
2022/04/24 04:47:41;;;;;;;11.05;8.02;;;7.30;57.60;;;;;;5057019;28;20024;-85
2022/04/24 04:50:07;;;;;;;12.35;8.27;;;7.30;41.60;;;;;;5067799;28;20076;-86
2022/04/24 04:52:33;;;;;;;10.13;8.50;;;7.30;93.20;;;;;;5054062;28;20074;-84
2022/04/24 04:54:59;;;;;;;11.75;9.10;;;7.30;60.90;;;;;;5074540;28;20042;-84
2022/04/24 04:57:25;;;;;;;11.50;8.68;;;7.30;92.60;;;;;;5056693;28;20559;-85
2022/04/24 04:59:51;;;;;;;11.52;8.30;;;7.30;87.00;;;;;;5084490;28;20127;-85
2022/04/24 05:02:17;;;;;;;10.95;8.70;;;7.40;89.10;;;;;;5054963;28;20123;-85
2022/04/24 05:04:43;;;;;;;11.18;8.38;;;7.40;73.20;;;;;;5085727;28;20123;-85
2022/04/24 05:07:12;;;;;;;11.40;8.77;;;7.50;91.50;;;;;;5071138;28;20051;-85
2022/04/24 05:09:38;;;;;;;9.80;8.60;;;7.60;82.60;;;;;;5057479;28;20135;-85
2022/04/24 05:12:04;;;;;;;13.85;8.98;;;7.60;93.30;;;;;;5055328;28;20036;-84
2022/04/24 05:14:31;;;;;;;11.25;8.70;;;7.70;92.00;;;;;;5068758;28;20488;-85
2022/04/24 05:16:57;;;;;;;11.85;8.98;;;7.70;94.90;;;;;;5084825;28;20359;-86
2022/04/24 05:19:24;;;;;;;11.63;9.20;;;7.80;90.40;;;;;;5070416;28;20037;-85
2022/04/24 05:21:50;;;;;;;14.75;9.57;;;7.80;65.50;;;;;;5054929;28;20036;-84
2022/04/24 05:24:15;;;;;;;15.80;9.93;;;7.80;95.50;;;;;;5071053;28;20407;-85
2022/04/24 05:26:41;;;;;;;12.77;9.00;;;7.90;48.50;;;;;;5073223;28;20483;-85
2022/04/24 05:29:07;;;;;;;11.38;9.27;;;8.00;68.20;;;;;;5071637;28;20272;-85
2022/04/24 05:31:33;;;;;;;13.48;9.15;;;8.00;52.50;;;;;;5060060;28;20040;-84
2022/04/24 05:33:59;;;;;;;12.73;9.88;;;8.10;62.20;;;;;;5050068;28;20029;-84
2022/04/24 05:36:25;;;;;;;11.80;9.43;;;8.10;38.30;;;;;;5067231;28;20036;-84
2022/04/24 05:38:51;;;;;;;12.40;9.95;;;8.20;57.20;;;;;;5057491;28;20033;-85
2022/04/24 05:41:16;;;;;;;13.88;10.27;;;8.30;17.30;;;;;;5065208;28;20442;-85
2022/04/24 05:43:42;;;;;;;13.00;10.30;;;8.30;42.40;;;;;;5055929;28;20121;-85
2022/04/24 05:46:08;;;;;;;13.45;9.48;;;8.40;35.00;;;;;;5056803;28;20878;-84
2022/04/24 05:48:33;;;;;;;12.88;10.38;;;8.40;48.20;;;;;;5068612;28;20044;-84
2022/04/24 05:51:00;;;;;;;12.98;9.85;;;8.50;31.70;;;;;;5066651;28;20555;-85
2022/04/24 05:53:25;;;;;;;14.70;10.20;;;8.60;19.50;;;;;;5068394;28;20422;-84
2022/04/24 05:55:51;;;;;;;15.38;10.25;;;8.60;6.00;;;;;;5071086;28;20051;-84
2022/04/24 05:58:17;;;;;;;14.10;9.73;;;8.60;18.00;;;;;;5059666;28;20068;-85
2022/04/24 06:00:43;;;;;;;12.38;9.57;;;8.70;1.00;;;;;;5059945;28;20056;-85
2022/04/24 06:03:09;;;;;;;16.05;10.07;;;8.90;5.80;;;;;;5058736;28;20406;-86
2022/04/24 06:05:35;;;;;;;11.57;9.30;;;8.80;1.00;;;;;;5068715;28;20186;-84
2022/04/24 06:08:00;;;;;;;16.42;9.57;;;8.90;1.00;;;;;;5060961;28;20117;-85
2022/04/24 06:10:26;;;;;;;15.07;9.85;;;8.90;1.00;;;;;;5070045;28;20416;-85
2022/04/24 06:12:53;;;;;;;14.80;9.55;;;8.90;1.00;;;;;;5057996;28;20174;-85
2022/04/24 06:15:21;;;;;;;11.80;8.70;;;8.90;1.00;;;;;;5059275;28;20073;-85
2022/04/24 06:17:57;;;;;;;11.70;9.02;;;9.00;1.00;;;;;;5068002;28;20542;-84
2022/04/24 06:20:25;;;;;;;12.15;8.85;;;9.10;1.00;;;;;;5056390;28;20045;-84
2022/04/24 06:22:53;;;;;;;12.52;8.82;;;9.10;1.00;;;;;;5073521;28;20032;-84
2022/04/24 06:25:24;;;;;;;10.10;8.40;;;9.10;1.00;;;;;;5054714;28;20047;-85
2022/04/24 06:27:51;;;;;;;10.75;8.00;;;9.10;1.00;;;;;;5075787;28;20040;-84
2022/04/24 06:30:19;;;;;;;11.25;7.63;;;9.00;1.00;;;;;;5058563;28;20032;-85
2022/04/24 06:32:45;;;;;;;10.75;7.53;;;9.10;1.00;;;;;;5061046;28;20036;-84
2022/04/24 06:35:14;;;;;;;11.48;7.18;;;9.20;1.00;;;;;;5072623;28;20419;-84
2022/04/24 06:37:48;;;;;;;10.13;6.90;;;9.40;1.00;;;;;;5062662;28;20499;-85
2022/04/24 06:40:16;;;;;;;8.13;6.68;;;9.60;1.00;;;;;;5072087;28;20045;-85
2022/04/24 06:42:49;;;;;;;8.82;6.43;;;9.50;1.00;;;;;;5059368;28;20048;-85
2022/04/24 06:45:16;;;;;;;8.02;6.30;;;9.40;1.00;;;;;;5092488;28;20083;-85
2022/04/24 06:47:42;;;;;;;9.88;5.85;;;9.40;1.00;;;;;;5056469;28;20415;-85
2022/04/24 06:50:09;;;;;;;9.70;6.18;;;9.50;1.00;;;;;;5080953;28;20427;-84
2022/04/24 06:52:34;;;;;;;8.43;5.47;;;9.60;1.00;;;;;;5090283;28;20442;-84
2022/04/24 06:55:00;;;;;;;9.18;5.00;;;9.60;1.00;;;;;;5069893;28;20043;-85
2022/04/24 06:57:27;;;;;;;6.72;4.60;;;9.50;99.90;;;;;;5056611;28;20039;-84
2022/04/24 06:59:53;;;;;;;8.95;5.28;;;9.60;99.90;;;;;;5069294;28;20048;-85
2022/04/24 07:02:18;;;;;;;6.68;4.97;;;9.60;99.90;;;;;;5061101;28;20051;-86
2022/04/24 07:04:44;;;;;;;9.63;5.70;;;9.60;99.90;;;;;;5057348;28;20051;-85
2022/04/24 07:07:10;;;;;;;7.60;4.90;;;9.70;99.90;;;;;;5074861;28;20032;-84
2022/04/24 07:09:36;;;;;;;6.82;4.68;;;9.90;99.90;;;;;;5062551;28;20039;-85
2022/04/24 07:12:01;;;;;;;7.10;4.50;;;10.10;99.90;;;;;;5061187;28;20093;-84
2022/04/24 07:14:27;;;;;;;6.90;4.32;;;10.30;99.90;;;;;;5060397;28;20211;-85
2022/04/24 07:16:52;;;;;;;6.35;4.00;;;10.40;99.90;;;;;;5061548;28;20596;-84
2022/04/24 07:19:18;;;;;;;6.43;3.90;;;10.50;99.90;;;;;;5068910;28;20046;-85
2022/04/24 07:21:44;;;;;;;5.72;3.90;;;10.60;99.90;;;;;;5066759;28;20040;-84
2022/04/24 07:24:10;;;;;;;6.10;3.65;;;10.70;99.90;;;;;;5069143;28;20376;-85
2022/04/24 07:26:36;;;;;;;5.15;3.50;;;10.80;99.90;;;;;;5070505;28;20044;-85
2022/04/24 07:29:01;;;;;;;6.80;3.72;;;10.90;99.90;;;;;;5069197;28;20040;-85
2022/04/24 07:31:28;;;;;;;4.65;3.30;;;10.90;99.90;;;;;;5061718;28;20475;-85
2022/04/24 07:33:56;;;;;;;5.20;3.30;;;10.80;99.90;;;;;;5085157;28;20036;-85
2022/04/24 07:36:22;;;;;;;6.15;3.50;;;11.00;99.90;;;;;;5066276;28;20035;-84
2022/04/24 07:38:50;;;;;;;6.90;3.83;;;11.10;99.90;;;;;;5072103;28;20040;-85
2022/04/24 07:41:16;;;;;;;4.88;3.35;;;11.20;99.90;;;;;;5072975;28;20037;-85
2022/04/24 07:43:48;;;;;;;4.15;3.35;;;11.40;99.90;;;;;;5060415;28;20028;-84
2022/04/24 07:46:14;;;;;;;5.43;3.50;;;11.50;99.90;;;;;;5057106;28;20058;-84
2022/04/24 07:48:40;;;;;;;4.90;3.42;;;11.80;99.90;;;;;;5057347;28;21369;-84
2022/04/24 07:51:05;;;;;;;5.68;3.50;;;11.90;99.90;;;;;;5070939;28;20036;-85
2022/04/24 07:53:31;;;;;;;6.15;3.30;;;11.90;99.90;;;;;;5086186;28;20040;-85
2022/04/24 07:55:57;;;;;;;6.53;3.50;;;12.00;99.90;;;;;;5069280;28;20036;-85
2022/04/24 07:58:22;;;;;;;6.78;3.10;;;11.80;99.90;;;;;;5058315;28;20107;-84
2022/04/24 08:00:48;;;;;;;5.90;3.47;;;11.90;99.90;;;;;;5058955;28;20124;-84
2022/04/24 08:03:15;;;;;;;7.53;3.50;;;12.00;99.90;;;;;;5075767;28;20650;-84
2022/04/24 08:05:47;;;;;;;4.35;3.50;;;12.10;99.90;;;;;;5054012;28;20379;-85
2022/04/24 08:08:23;;;;;;;4.15;3.20;;;12.10;99.90;;;;;;5053230;28;20139;-85
2022/04/24 08:10:58;;;;;;;5.80;3.22;;;12.30;99.90;;;;;;5060890;28;20039;-85
2022/04/24 08:13:25;;;;;;;4.57;3.53;;;12.40;99.90;;;;;;5056301;28;20059;-86
2022/04/24 08:15:51;;;;;;;6.45;3.42;;;12.40;99.90;;;;;;5059262;28;20032;-86
2022/04/24 08:18:18;;;;;;;5.20;3.45;;;12.50;99.90;;;;;;5070869;28;20112;-85
2022/04/24 08:20:44;;;;;;;4.93;3.38;;;12.60;99.90;;;;;;5084994;28;20040;-85
2022/04/24 08:23:12;;;;;;;4.30;3.38;;;12.70;99.90;;;;;;5072351;28;20036;-85
2022/04/24 08:25:38;;;;;;;5.65;3.83;;;12.70;99.90;;;;;;5057149;28;20040;-85
2022/04/24 08:28:06;;;;;;;7.22;3.78;;;12.80;99.90;;;;;;5059153;28;20040;-85
2022/04/24 08:30:34;;;;;;;5.10;3.33;;;12.80;99.90;;;;;;5068677;28;20377;-85
2022/04/24 08:33:00;;;;;;;5.25;3.45;;;12.80;99.90;;;;;;5080048;28;20040;-84
2022/04/24 08:35:27;;;;;;;7.80;3.30;;;13.00;99.90;;;;;;5067809;28;20034;-83
2022/04/24 08:37:52;;;;;;;5.72;3.47;;;13.10;99.90;;;;;;5068791;28;20397;-85
2022/04/24 08:40:21;;;;;;;4.72;3.30;;;13.20;99.90;;;;;;5072564;28;20052;-85
2022/04/24 08:42:47;;;;;;;5.20;3.40;;;13.40;99.90;;;;;;5055779;28;20333;-85
2022/04/24 08:45:14;;;;;;;5.90;3.05;;;13.40;99.90;;;;;;5055658;28;20387;-85
2022/04/24 08:47:41;;;;;;;6.60;3.53;;;13.50;99.90;;;;;;5053357;28;20136;-86
2022/04/24 08:50:08;;;;;;;5.50;3.60;;;13.30;99.90;;;;;;5056635;28;20050;-85
2022/04/24 08:52:35;;;;;;;5.18;3.35;;;13.70;99.90;;;;;;5057484;28;20050;-84
2022/04/24 08:55:02;;;;;;;5.05;3.38;;;13.80;99.90;;;;;;5069387;28;20038;-85
2022/04/24 08:57:30;;;;;;;6.20;3.38;;;13.80;99.90;;;;;;5068399;28;20047;-84
2022/04/24 09:00:00;;;;;;;5.60;3.42;;;13.90;99.90;;;;;;5056810;28;20582;-85
2022/04/24 09:02:26;;;;;;;4.57;3.55;;;14.10;99.90;;;;;;5049698;28;20048;-86
2022/04/24 09:04:53;;;;;;;6.25;3.47;;;14.00;99.90;;;;;;5071890;28;20047;-85
2022/04/24 09:07:20;;;;;;;4.03;3.58;;;14.00;99.90;;;;;;5057515;28;20445;-84
2022/04/24 09:09:48;;;;;;;8.98;3.33;;;14.10;99.90;;;;;;5067492;28;20036;-85
2022/04/24 09:12:24;;;;;;;6.57;3.88;;;14.20;99.90;;;;;;5070624;28;20392;-85
2022/04/24 09:14:51;;;;;;;6.55;3.80;;;14.10;99.90;;;;;;5059569;28;20101;-85
2022/04/24 09:17:27;;;;;;;4.78;3.47;;;14.50;99.90;;;;;;5072155;28;20042;-84
2022/04/24 09:19:55;;;;;;;4.43;3.15;;;14.50;99.90;;;;;;5065704;28;20078;-85
2022/04/24 09:22:24;;;;;;;6.45;3.55;;;14.70;99.90;;;;;;5057548;28;20039;-85
2022/04/24 09:24:59;;;;;;;4.35;3.30;;;14.70;99.90;;;;;;5058335;28;20138;-84
2022/04/24 09:27:37;;;;;;;5.70;3.20;;;14.70;99.90;;;;;;5056712;28;20516;-86
2022/04/24 09:30:10;;;;;;;3.85;2.85;;;14.70;99.90;;;;;;5060398;28;20505;-87
2022/04/24 09:32:51;;;;;;;4.22;3.20;;;14.80;99.90;;;;;;5066537;28;20531;-89
2022/04/24 09:35:36;;;;;;;4.80;3.15;;;14.90;99.90;;;;;;5077736;28;20196;-88
2022/04/24 09:38:06;;;;;;;;;;;15.00;99.90;;;;;;5073979;28;20550;-88
2022/04/24 09:40:46;;;;;;;4.35;3.25;;;15.00;99.90;;;;;;5071669;28;20618;-89
2022/04/24 09:43:15;;;;;;;6.22;3.20;;;15.00;99.90;;;;;;5079235;28;20047;-89
2022/04/24 09:45:45;;;;;;;5.30;3.08;;;15.00;99.90;;;;;;5072959;28;20150;-88
2022/04/24 09:48:13;;;;;;;5.78;3.05;;;15.30;99.90;;;;;;5074748;28;20554;-89
2022/04/24 09:50:43;;;;;;;4.50;3.30;;;14.90;99.90;;;;;;5066363;28;20032;-88
2022/04/24 09:53:13;;;;;;;4.22;3.63;;;15.20;99.90;;;;;;5069047;28;20184;-87
2022/04/24 09:55:41;;;;;;;5.45;3.63;;;15.20;99.90;;;;;;5069432;28;20032;-88
2022/04/24 09:58:13;;;;;;;4.22;3.28;;;15.40;99.90;;;;;;5069460;28;20028;-88
2022/04/24 10:00:39;;;;;;;8.50;3.28;;;15.30;99.90;;;;;;5065739;28;20066;-88
2022/04/24 10:03:05;;;;;;;4.38;3.20;;;15.30;99.90;;;;;;5082856;28;20044;-89
2022/04/24 10:05:34;;;;;;;6.45;3.30;;;15.20;99.90;;;;;;5074273;28;20094;-88
2022/04/24 10:08:04;;;;;;;4.93;3.60;;;15.30;99.90;;;;;;5066157;28;20028;-90
2022/04/24 10:10:30;;;;;;;5.60;3.60;;;15.50;99.90;;;;;;5079738;28;20044;-87
2022/04/24 10:12:59;;;;;;;5.15;3.55;;;15.60;99.90;;;;;;5061711;28;20036;-88
2022/04/24 10:15:25;;;;;;;6.00;3.28;;;15.80;99.90;;;;;;5075259;28;20040;-88
2022/04/24 10:18:18;;;;;;;6.30;3.30;;;15.80;99.90;;;;;;5067468;28;20039;-88
2022/04/24 10:21:02;;;;;;;4.47;2.92;;;15.80;99.90;;;;;;5072940;28;20096;-88
2022/04/24 10:23:36;;;;;;;4.45;2.83;;;16.10;99.90;;;;;;5077743;28;20040;-88
2022/04/24 10:26:03;;;;;;;4.75;3.25;;;16.00;99.90;;;;;;5069797;28;20032;-90
2022/04/24 10:28:39;;;;;;;4.38;2.80;;;16.00;99.90;;;;;;5083640;28;20119;-90
2022/04/24 10:31:07;;;;;;;3.33;2.95;;;16.20;99.90;;;;;;5076556;28;20033;-89
2022/04/24 10:33:34;;;;;;;7.22;3.35;;;16.00;99.90;;;;;;5065108;28;20068;-89
2022/04/24 10:36:06;;;;;;;5.20;3.20;;;16.30;99.90;;;;;;5073548;28;20070;-88
2022/04/24 10:38:44;;;;;;;6.88;2.90;;;16.10;99.90;;;;;;5062140;28;20031;-88
2022/04/24 10:41:24;;;;;;;6.97;2.47;;;16.00;99.90;;;;;;5062713;28;20119;-88
2022/04/24 10:43:56;;;;;;;5.10;3.25;;;16.70;99.90;;;;;;5074930;28;20078;-87
2022/04/24 10:46:29;;;;;;;4.90;2.65;;;16.90;99.90;;;;;;5075366;28;20233;-87
2022/04/24 10:49:08;;;;;;;3.88;2.80;;;16.60;99.90;;;;;;5056521;28;20044;-86
2022/04/24 10:51:35;;;;;;;4.15;3.00;;;16.50;99.90;;;;;;5069859;28;20036;-84
2022/04/24 10:54:16;;;;;;;5.43;2.65;;;16.60;99.90;;;;;;5059692;28;20564;-85
2022/04/24 10:56:49;;;;;;;5.55;2.92;;;16.80;99.90;;;;;;5092072;28;20411;-85
2022/04/24 10:59:21;;;;;;;3.42;2.38;;;16.70;99.90;;;;;;5075485;28;20052;-85
2022/04/24 11:01:53;;;;;;;5.00;3.10;;;16.70;99.90;;;;;;5075101;28;20069;-84
2022/04/24 11:04:21;;;;;;;5.22;2.88;;;16.50;99.90;;;;;;5074224;28;20044;-85
2022/04/24 11:06:58;;;;;;;4.32;2.70;;;16.60;99.90;;;;;;5072717;28;20049;-85
2022/04/24 11:09:30;;;;;;;3.83;2.58;;;16.70;99.90;;;;;;5061107;28;20048;-87
2022/04/24 11:12:01;;;;;;;4.30;2.65;;;17.00;99.90;;;;;;5080287;28;20086;-83
2022/04/24 11:14:28;;;;;;;4.32;2.67;;;16.70;99.90;;;;;;5073493;28;20050;-86
2022/04/24 11:16:59;;;;;;;3.88;2.67;;;17.10;99.90;;;;;;5077229;28;20043;-85
2022/04/24 11:19:26;;;;;;;3.97;2.78;;;17.20;99.90;;;;;;5073008;28;20063;-84
2022/04/24 11:22:01;;;;;;;9.93;3.00;;;17.40;99.90;;;;;;5072314;28;20146;-84
2022/04/24 11:24:32;;;;;;;2.97;2.38;;;17.10;99.90;;;;;;5077970;28;20055;-85
2022/04/24 11:27:07;;;;;;;4.65;2.33;;;17.50;99.90;;;;;;5074851;28;20044;-84
2022/04/24 11:29:33;;;;;;;3.97;2.58;;;17.00;99.90;;;;;;5072787;28;20040;-85
2022/04/24 11:32:00;;;;;;;3.13;2.40;;;17.40;99.90;;;;;;5062086;28;20028;-85
2022/04/24 11:34:29;;;;;;;3.28;2.13;;;16.60;99.90;;;;;;5059727;28;20345;-84
2022/04/24 11:36:57;;;;;;;4.05;2.67;;;16.90;99.90;;;;;;5077034;28;20035;-84
2022/04/24 11:39:24;;;;;;;4.22;2.80;;;17.50;99.90;;;;;;5059658;28;20644;-85
2022/04/24 11:41:55;;;;;;;3.67;3.00;;;17.40;99.90;;;;;;5058166;28;20598;-84
2022/04/24 11:50:13;;;;;;;5.85;3.03;;;16.60;99.90;;;;;;5077400;28;20126;-84
2022/04/24 11:52:47;;;;;;;7.72;3.15;;;16.90;99.90;;;;;;5074497;28;20529;-83
2022/04/24 11:55:21;;;;;;;6.60;3.22;;;15.60;99.90;;;;;;5074741;28;20055;-84
2022/04/24 11:58:02;;;;;;;3.97;2.90;;;15.90;99.90;;;;;;5089397;28;20051;-86
2022/04/24 12:00:38;;;;;;;8.80;3.53;;;16.10;99.90;;;;;;5074179;28;20135;-84
2022/04/24 12:03:08;;;;;;;6.72;4.00;;;16.50;99.90;;;;;;5064006;28;20051;-84
2022/04/24 12:05:34;;;;;;;6.07;3.45;;;16.10;99.90;;;;;;5055681;28;20038;-83
2022/04/24 12:08:01;;;;;;;4.53;3.65;;;16.70;99.90;;;;;;5057605;28;20097;-84
2022/04/24 12:10:27;;;;;;;8.05;3.90;;;16.20;99.90;;;;;;5075171;28;20035;-83
2022/04/24 12:12:54;;;;;;;5.38;3.50;;;16.40;99.90;;;;;;5062053;28;20390;-83
2022/04/24 12:15:24;;;;;;;6.38;3.53;;;16.10;99.90;;;;;;5077817;28;20200;-84
2022/04/24 12:17:52;;;;;;;7.78;3.80;;;15.80;99.90;;;;;;5059460;28;20162;-85
2022/04/24 12:20:21;;;;;;;4.90;4.05;;;16.70;99.90;;;;;;5058332;28;20050;-84
2022/04/24 12:22:48;;;;;;;11.10;4.00;;;16.50;99.90;;;;;;5062025;28;20044;-84
2022/04/24 12:25:18;;;;;;;11.70;4.90;;;17.00;99.90;;;;;;5071941;28;20044;-84
2022/04/24 12:27:57;;;;;;;6.43;4.30;;;15.70;99.90;;;;;;5067765;28;20052;-84
2022/04/24 12:30:33;;;;;;;5.15;4.32;;;15.40;99.90;;;;;;5072762;28;20040;-85
2022/04/24 12:33:09;;;;;;;7.43;4.30;;;15.60;99.90;;;;;;5059274;28;20041;-85
2022/04/24 12:35:35;;;;;;;5.20;4.20;;;15.70;99.90;;;;;;5072774;28;20046;-84
2022/04/24 12:38:12;;;;;;;6.25;3.90;;;15.70;99.90;;;;;;5068227;28;20135;-84
2022/04/24 12:40:38;;;;;;;6.57;4.15;;;16.20;99.90;;;;;;5068819;28;20032;-84
2022/04/24 12:43:03;;;;;;;6.03;3.85;;;15.60;99.90;;;;;;5073633;28;20621;-85
2022/04/24 12:45:29;;;;;;;5.72;3.95;;;15.80;99.90;;;;;;5056774;28;20036;-84
2022/04/24 12:47:55;;;;;;;5.88;4.40;;;15.90;99.90;;;;;;5052286;28;20062;-84
2022/04/24 12:50:20;;;;;;;5.18;3.95;;;16.00;99.90;;;;;;5075946;28;20032;-84
2022/04/24 12:52:46;;;;;;;5.88;4.03;;;16.60;99.90;;;;;;5056222;28;20043;-84
2022/04/24 12:55:18;;;;;;;7.72;4.18;;;17.10;99.90;;;;;;5056040;28;20041;-86
2022/04/24 12:57:46;;;;;;;5.20;4.20;;;15.70;99.90;;;;;;5072466;28;20044;-86
2022/04/24 13:00:37;;;;;;;7.28;4.20;;;16.80;99.90;;;;;;5092145;27;20541;-87